Time;durP1;ratioP1;P1;durP2;ratioP2;P2;SDS_P1;SDS_P2;PMS_P1;PMS_P2;Temp;Humidity;BMP_temperature;BMP_pressure;BME280_temperature;BME280_humidity;BME280_pressure;Samples;Min_cycle;Max_cycle;Signal;HPM_P1;HPM_P2
2023/03/23 00:01:37;;;;;;;11.97;10.23;;;;;;;;;;732112;191;634069;-78
2023/03/23 00:04:03;;;;;;;13.07;9.43;;;;;;;;;;739038;191;626050;-81
2023/03/23 00:06:32;;;;;;;11.27;9.50;;;;;;;;;;732524;191;615136;-81
2023/03/23 00:08:59;;;;;;;15.87;9.17;;;;;;;;;;733572;190;628661;-81
2023/03/23 00:11:22;;;;;;;14.83;10.77;;;;;;;;;;737840;190;637684;-81
2023/03/23 00:13:51;;;;;;;24.92;13.85;;;;;;;;;;739490;188;619214;-81
2023/03/23 00:16:18;;;;;;;16.10;11.37;;;;;;;;;;736560;190;616284;-80
2023/03/23 00:18:45;;;;;;;17.30;12.67;;;;;;;;;;729872;190;642817;-79
2023/03/23 00:21:11;;;;;;;16.60;12.47;;;;;;;;;;726501;191;644569;-81
2023/03/23 00:23:38;;;;;;;18.03;13.00;;;;;;;;;;730605;191;693768;-78
2023/03/23 00:26:03;;;;;;;14.53;12.27;;;;;;;;;;731396;191;629525;-81
2023/03/23 00:28:29;;;;;;;15.37;11.73;;;;;;;;;;733496;190;630582;-78
2023/03/23 00:31:00;;;;;;;14.43;10.53;;;;;;;;;;738716;191;636121;-80
2023/03/23 00:33:27;;;;;;;16.40;11.50;;;;;;;;;;738486;190;625396;-80
2023/03/23 00:35:53;;;;;;;14.43;11.10;;;;;;;;;;736975;191;631971;-81
2023/03/23 00:38:19;;;;;;;14.10;10.87;;;;;;;;;;733786;191;640432;-79
2023/03/23 00:40:44;;;;;;;15.60;11.53;;;;;;;;;;734598;188;652066;-81
2023/03/23 00:43:13;;;;;;;19.13;10.67;;;;;;;;;;735323;191;648675;-81
2023/03/23 00:45:36;;;;;;;18.50;13.93;;;;;;;;;;731449;191;646854;-79
2023/03/23 00:48:04;;;;;;;16.77;12.20;;;;;;;;;;733082;190;619072;-80
2023/03/23 00:50:28;;;;;;;16.43;11.63;;;;;;;;;;728684;191;633039;-81
2023/03/23 00:52:56;;;;;;;17.73;11.93;;;;;;;;;;737206;188;639265;-78
2023/03/23 00:55:19;;;;;;;15.40;11.70;;;;;;;;;;732678;189;635137;-80
2023/03/23 00:57:45;;;;;;;16.37;12.30;;;;;;;;;;733921;190;631871;-81
2023/03/23 01:00:12;;;;;;;16.93;12.23;;;;;;;;;;726812;195;631340;-78
2023/03/23 01:02:40;;;;;;;16.30;11.80;;;;;;;;;;733151;190;637651;-80
2023/03/23 01:05:04;;;;;;;21.67;12.10;;;;;;;;;;741455;191;631666;-81
2023/03/23 01:07:31;;;;;;;29.50;12.57;;;;;;;;;;736096;190;628644;-81
2023/03/23 01:09:57;;;;;;;14.53;11.37;;;;;;;;;;732056;191;633483;-80
2023/03/23 01:12:24;;;;;;;16.13;12.20;;;;;;;;;;734879;191;620084;-78
2023/03/23 01:14:47;;;;;;;16.10;11.60;;;;;;;;;;733076;191;623430;-81
2023/03/23 01:17:13;;;;;;;17.67;13.47;;;;;;;;;;733037;191;629382;-79
2023/03/23 01:19:40;;;;;;;20.73;12.50;;;;;;;;;;730881;191;632798;-80
2023/03/23 01:22:05;;;;;;;20.20;12.70;;;;;;;;;;743127;190;624592;-80
2023/03/23 01:24:30;;;;;;;17.53;12.13;;;;;;;;;;732473;190;623324;-78
2023/03/23 01:26:56;;;;;;;19.23;13.47;;;;;;;;;;733927;191;638678;-81
2023/03/23 01:29:22;;;;;;;16.93;12.10;;;;;;;;;;733969;191;627910;-79
2023/03/23 01:31:48;;;;;;;17.67;13.50;;;;;;;;;;733537;191;629735;-81
2023/03/23 01:34:14;;;;;;;16.40;13.37;;;;;;;;;;729630;191;637287;-80
2023/03/23 01:36:40;;;;;;;14.03;11.43;;;;;;;;;;731423;191;623378;-80
2023/03/23 01:39:06;;;;;;;15.50;11.00;;;;;;;;;;732446;190;627551;-80
2023/03/23 01:41:31;;;;;;;16.63;11.40;;;;;;;;;;729523;191;622687;-80
2023/03/23 01:44:02;;;;;;;17.43;12.47;;;;;;;;;;733778;188;620143;-78
2023/03/23 01:46:27;;;;;;;19.60;12.23;;;;;;;;;;741818;191;635008;-79
2023/03/23 01:48:53;;;;;;;20.63;12.97;;;;;;;;;;731973;190;640740;-78
2023/03/23 01:51:19;;;;;;;15.90;12.30;;;;;;;;;;737122;191;621765;-79
2023/03/23 01:53:45;;;;;;;14.90;10.93;;;;;;;;;;734912;190;629306;-80
2023/03/23 01:56:12;;;;;;;13.37;10.53;;;;;;;;;;734795;191;621921;-79
2023/03/23 01:58:37;;;;;;;17.63;12.60;;;;;;;;;;731641;191;628076;-78
2023/03/23 02:01:04;;;;;;;17.83;12.88;;;;;;;;;;733451;191;639704;-80
2023/03/23 02:03:31;;;;;;;16.10;12.17;;;;;;;;;;726526;193;637838;-80
2023/03/23 02:05:58;;;;;;;15.37;12.33;;;;;;;;;;733845;189;627436;-80
2023/03/23 02:08:21;;;;;;;16.17;11.83;;;;;;;;;;738343;190;644312;-80
2023/03/23 02:10:47;;;;;;;17.20;12.67;;;;;;;;;;737875;188;625941;-80
2023/03/23 02:13:13;;;;;;;18.30;13.00;;;;;;;;;;730438;190;677557;-78
2023/03/23 02:15:42;;;;;;;13.80;11.67;;;;;;;;;;738187;190;631459;-81
2023/03/23 02:18:10;;;;;;;14.67;11.83;;;;;;;;;;731227;191;630551;-81
2023/03/23 02:20:37;;;;;;;14.97;10.37;;;;;;;;;;727779;194;653597;-81
2023/03/23 02:23:18;;;;;;;16.37;11.23;;;;;;;;;;731151;191;627306;-79
2023/03/23 02:25:43;;;;;;;15.67;12.07;;;;;;;;;;737568;190;632291;-79
2023/03/23 02:28:19;;;;;;;15.80;12.60;;;;;;;;;;731804;190;624835;-81
2023/03/23 02:30:49;;;;;;;22.30;9.80;;;;;;;;;;730670;191;650995;-79
2023/03/23 02:33:21;;;;;;;15.37;9.13;;;;;;;;;;728951;191;676570;-79
2023/03/23 02:35:50;;;;;;;13.60;10.13;;;;;;;;;;731177;190;621341;-78
2023/03/23 02:38:16;;;;;;;16.73;10.90;;;;;;;;;;734643;190;630094;-79
2023/03/23 02:40:43;;;;;;;16.15;11.75;;;;;;;;;;737531;187;630239;-80
2023/03/23 02:43:08;;;;;;;17.90;12.70;;;;;;;;;;727292;193;634215;-81
2023/03/23 02:45:34;;;;;;;16.23;11.53;;;;;;;;;;738607;190;631571;-80
2023/03/23 02:48:00;;;;;;;20.63;10.77;;;;;;;;;;731890;190;627152;-81
2023/03/23 02:50:26;;;;;;;13.20;11.37;;;;;;;;;;736181;191;629216;-81
2023/03/23 02:52:52;;;;;;;17.70;11.77;;;;;;;;;;727234;190;645239;-79
2023/03/23 02:55:18;;;;;;;17.73;11.50;;;;;;;;;;732193;190;628320;-79
2023/03/23 02:57:45;;;;;;;15.07;11.53;;;;;;;;;;733952;191;634520;-80
2023/03/23 03:00:10;;;;;;;15.40;11.10;;;;;;;;;;733677;191;624599;-79
2023/03/23 03:02:36;;;;;;;13.40;10.70;;;;;;;;;;731340;190;635990;-80
2023/03/23 03:05:05;;;;;;;17.80;10.20;;;;;;;;;;735733;190;697317;-81
2023/03/23 03:07:30;;;;;;;12.40;9.83;;;;;;;;;;734609;191;627981;-80
2023/03/23 03:09:56;;;;;;;16.80;11.40;;;;;;;;;;728707;191;632489;-79
2023/03/23 03:12:38;;;;;;;14.87;10.63;;;;;;;;;;727980;191;631485;-81
2023/03/23 03:15:05;;;;;;;13.17;11.33;;;;;;;;;;733990;190;631944;-78
2023/03/23 03:17:30;;;;;;;14.30;11.50;;;;;;;;;;737725;190;628586;-80
2023/03/23 03:19:56;;;;;;;13.70;9.90;;;;;;;;;;730620;190;645584;-79
2023/03/23 03:22:22;;;;;;;15.23;10.80;;;;;;;;;;735327;190;634961;-78
2023/03/23 03:24:48;;;;;;;16.60;11.33;;;;;;;;;;738863;188;610333;-79
2023/03/23 03:27:16;;;;;;;17.33;12.37;;;;;;;;;;740138;190;622193;-79
2023/03/23 03:29:41;;;;;;;17.60;12.80;;;;;;;;;;732350;190;642702;-80
2023/03/23 03:32:07;;;;;;;19.80;11.23;;;;;;;;;;734510;185;633135;-79
2023/03/23 03:34:33;;;;;;;15.13;10.80;;;;;;;;;;741797;186;621991;-80
2023/03/23 03:36:58;;;;;;;14.00;9.70;;;;;;;;;;728574;190;627398;-80
2023/03/23 03:39:24;;;;;;;13.70;10.10;;;;;;;;;;737018;190;632536;-80
2023/03/23 03:41:50;;;;;;;14.30;10.27;;;;;;;;;;735572;191;629464;-80
2023/03/23 03:44:16;;;;;;;17.00;12.40;;;;;;;;;;735082;191;637614;-81
2023/03/23 03:46:42;;;;;;;15.90;10.73;;;;;;;;;;731953;191;630462;-80
2023/03/23 03:49:08;;;;;;;14.63;9.63;;;;;;;;;;736624;190;614827;-80
2023/03/23 03:51:34;;;;;;;13.13;10.20;;;;;;;;;;734735;191;641542;-81
2023/03/23 03:54:00;;;;;;;14.90;10.80;;;;;;;;;;732073;188;634131;-81
2023/03/23 03:56:26;;;;;;;15.10;11.20;;;;;;;;;;732189;190;625488;-80
2023/03/23 03:58:51;;;;;;;16.87;12.47;;;;;;;;;;729999;190;628072;-78
2023/03/23 04:01:17;;;;;;;16.17;11.30;;;;;;;;;;727878;190;628541;-80
2023/03/23 04:03:43;;;;;;;16.57;9.90;;;;;;;;;;732148;190;630976;-79
2023/03/23 04:06:09;;;;;;;18.33;11.63;;;;;;;;;;737137;191;631500;-81
2023/03/23 04:08:35;;;;;;;15.03;10.23;;;;;;;;;;733274;191;633527;-80
2023/03/23 04:11:01;;;;;;;15.90;11.23;;;;;;;;;;732939;190;628493;-80
2023/03/23 04:13:26;;;;;;;12.37;10.10;;;;;;;;;;735904;191;627209;-81
2023/03/23 04:15:52;;;;;;;14.80;10.83;;;;;;;;;;736814;191;634387;-81
2023/03/23 04:18:19;;;;;;;12.80;10.17;;;;;;;;;;731371;191;624105;-81
2023/03/23 04:20:44;;;;;;;15.57;11.23;;;;;;;;;;730807;191;644191;-80
2023/03/23 04:23:10;;;;;;;14.53;11.03;;;;;;;;;;730109;191;625433;-80
2023/03/23 04:25:35;;;;;;;17.07;11.40;;;;;;;;;;730056;190;630557;-81
2023/03/23 04:28:01;;;;;;;13.63;11.07;;;;;;;;;;737822;189;633738;-80
2023/03/23 04:30:27;;;;;;;17.50;11.67;;;;;;;;;;734368;189;627795;-80
2023/03/23 04:32:55;;;;;;;14.27;10.90;;;;;;;;;;728502;190;642649;-78
2023/03/23 04:35:19;;;;;;;26.07;12.30;;;;;;;;;;729609;191;652382;-79
2023/03/23 04:37:45;;;;;;;25.13;12.57;;;;;;;;;;737558;190;617276;-80
2023/03/23 04:40:14;;;;;;;17.77;12.10;;;;;;;;;;736691;190;656346;-80
2023/03/23 04:42:37;;;;;;;16.07;11.20;;;;;;;;;;737552;190;632636;-75
2023/03/23 04:45:03;;;;;;;18.50;11.10;;;;;;;;;;743172;190;634875;-76
2023/03/23 04:47:29;;;;;;;19.10;13.10;;;;;;;;;;731302;191;616520;-79
2023/03/23 04:49:56;;;;;;;14.03;10.53;;;;;;;;;;725675;195;652992;-78
2023/03/23 04:52:21;;;;;;;18.53;10.87;;;;;;;;;;730181;190;631531;-77
2023/03/23 04:54:47;;;;;;;16.90;9.87;;;;;;;;;;735214;190;621376;-81
2023/03/23 04:57:15;;;;;;;17.10;10.93;;;;;;;;;;729736;191;698635;-80
2023/03/23 04:59:40;;;;;;;11.00;9.50;;;;;;;;;;732679;188;627508;-80
2023/03/23 05:02:05;;;;;;;13.63;10.20;;;;;;;;;;738814;190;618887;-80
2023/03/23 05:04:33;;;;;;;12.43;9.60;;;;;;;;;;739020;188;675312;-79
2023/03/23 05:06:56;;;;;;;23.00;9.77;;;;;;;;;;726542;191;660296;-79
2023/03/23 05:09:22;;;;;;;16.37;9.63;;;;;;;;;;737200;191;646827;-79
2023/03/23 05:11:48;;;;;;;15.87;10.43;;;;;;;;;;733171;191;648100;-80
2023/03/23 05:14:14;;;;;;;14.57;11.17;;;;;;;;;;729921;191;627382;-78
2023/03/23 05:16:40;;;;;;;13.57;10.23;;;;;;;;;;731401;190;665194;-80
2023/03/23 05:19:07;;;;;;;16.40;10.27;;;;;;;;;;733298;191;638401;-81
2023/03/23 05:21:32;;;;;;;14.30;10.50;;;;;;;;;;728185;190;630559;-80
2023/03/23 05:24:00;;;;;;;11.67;9.13;;;;;;;;;;728586;190;663362;-77
2023/03/23 05:26:24;;;;;;;15.83;10.70;;;;;;;;;;734924;190;624826;-77
2023/03/23 05:28:52;;;;;;;13.33;10.43;;;;;;;;;;729080;191;630431;-81
2023/03/23 05:31:16;;;;;;;14.43;11.67;;;;;;;;;;727164;193;635700;-80
2023/03/23 05:33:42;;;;;;;16.03;11.87;;;;;;;;;;731062;191;621539;-80
2023/03/23 05:36:10;;;;;;;18.53;12.50;;;;;;;;;;728037;191;645970;-80
2023/03/23 05:38:36;;;;;;;17.67;10.20;;;;;;;;;;725283;195;624769;-78
2023/03/23 05:41:01;;;;;;;17.93;11.43;;;;;;;;;;730678;191;636590;-79
2023/03/23 05:43:26;;;;;;;18.37;11.00;;;;;;;;;;730811;194;630428;-79
2023/03/23 05:45:52;;;;;;;16.70;12.00;;;;;;;;;;731372;190;626605;-78
2023/03/23 05:48:18;;;;;;;14.40;10.77;;;;;;;;;;728314;193;627896;-79
2023/03/23 05:50:45;;;;;;;15.23;11.17;;;;;;;;;;730715;190;633798;-78
2023/03/23 05:53:10;;;;;;;20.30;11.20;;;;;;;;;;726299;195;627220;-80
2023/03/23 05:55:36;;;;;;;16.43;12.00;;;;;;;;;;729930;190;635865;-80
2023/03/23 05:58:02;;;;;;;22.20;16.27;;;;;;;;;;729733;195;627314;-81
2023/03/23 06:00:30;;;;;;;16.20;11.50;;;;;;;;;;726402;191;640197;-79
2023/03/23 06:02:54;;;;;;;19.70;12.63;;;;;;;;;;727201;193;623981;-80
2023/03/23 06:05:20;;;;;;;18.10;11.50;;;;;;;;;;732161;191;635357;-78
2023/03/23 06:07:46;;;;;;;18.43;13.00;;;;;;;;;;740770;190;631166;-78
2023/03/23 06:10:11;;;;;;;15.83;12.00;;;;;;;;;;733391;187;733785;-80
2023/03/23 06:12:38;;;;;;;14.13;10.93;;;;;;;;;;736064;191;629044;-79
2023/03/23 06:15:03;;;;;;;18.37;12.20;;;;;;;;;;735235;190;629192;-79
2023/03/23 06:17:29;;;;;;;15.37;11.23;;;;;;;;;;736942;191;636117;-79
2023/03/23 06:19:55;;;;;;;19.50;15.43;;;;;;;;;;726260;191;623676;-78
2023/03/23 06:22:21;;;;;;;23.57;18.20;;;;;;;;;;731568;191;747476;-80
2023/03/23 06:24:47;;;;;;;24.07;20.13;;;;;;;;;;726877;191;683602;-80
2023/03/23 06:27:13;;;;;;;28.50;24.60;;;;;;;;;;736745;191;806425;-80
2023/03/23 06:29:39;;;;;;;23.73;17.87;;;;;;;;;;735439;191;638328;-80
2023/03/23 06:32:04;;;;;;;16.50;11.43;;;;;;;;;;731505;191;635712;-79
2023/03/23 06:34:30;;;;;;;20.13;12.60;;;;;;;;;;734314;191;622534;-81
2023/03/23 06:36:56;;;;;;;20.33;11.43;;;;;;;;;;731340;191;979871;-82
2023/03/23 06:39:22;;;;;;;16.50;10.50;;;;;;;;;;730498;194;651231;-81
2023/03/23 06:41:48;;;;;;;16.20;11.57;;;;;;;;;;726542;193;707710;-81
2023/03/23 06:44:14;;;;;;;14.40;10.47;;;;;;;;;;727147;193;617513;-79
2023/03/23 06:46:40;;;;;;;14.93;8.73;;;;;;;;;;730650;193;633903;-79
2023/03/23 06:49:05;;;;;;;16.80;10.80;;;;;;;;;;734348;191;764501;-82
2023/03/23 06:51:31;;;;;;;13.90;10.40;;;;;;;;;;732969;191;641922;-77
2023/03/23 06:53:57;;;;;;;15.40;10.10;;;;;;;;;;732359;193;646711;-81
2023/03/23 06:56:23;;;;;;;13.10;10.57;;;;;;;;;;740097;189;621098;-81
2023/03/23 06:58:49;;;;;;;13.60;11.60;;;;;;;;;;738507;191;623110;-82
2023/03/23 07:01:15;;;;;;;17.30;10.63;;;;;;;;;;730430;191;618915;-80
2023/03/23 07:03:41;;;;;;;18.10;14.67;;;;;;;;;;731481;193;623423;-80
2023/03/23 07:06:07;;;;;;;17.73;11.57;;;;;;;;;;727595;191;644534;-78
2023/03/23 07:08:33;;;;;;;15.27;9.30;;;;;;;;;;727892;193;638152;-81
2023/03/23 07:10:59;;;;;;;13.30;8.33;;;;;;;;;;730625;191;698478;-79
2023/03/23 07:13:25;;;;;;;13.03;8.27;;;;;;;;;;729340;191;676913;-80
2023/03/23 07:15:50;;;;;;;11.77;8.13;;;;;;;;;;728019;190;641858;-81
2023/03/23 07:18:17;;;;;;;10.07;7.90;;;;;;;;;;732962;191;629242;-80
2023/03/23 07:20:43;;;;;;;16.03;12.00;;;;;;;;;;737090;190;630032;-80
2023/03/23 07:23:09;;;;;;;16.00;8.63;;;;;;;;;;727308;190;619687;-80
2023/03/23 07:25:35;;;;;;;35.13;24.20;;;;;;;;;;730320;191;623057;-78
2023/03/23 07:28:00;;;;;;;12.53;8.77;;;;;;;;;;741724;191;617210;-81
2023/03/23 07:30:26;;;;;;;34.47;21.63;;;;;;;;;;733673;191;643804;-82
2023/03/23 07:32:52;;;;;;;24.90;18.10;;;;;;;;;;725568;194;651903;-81
2023/03/23 07:35:18;;;;;;;24.63;18.80;;;;;;;;;;732485;192;626773;-80
2023/03/23 07:37:45;;;;;;;16.23;12.50;;;;;;;;;;726699;193;633115;-81
2023/03/23 07:40:15;;;;;;;14.90;8.10;;;;;;;;;;726472;193;674383;-80
2023/03/23 07:42:41;;;;;;;10.73;7.50;;;;;;;;;;728503;191;629879;-79
2023/03/23 07:45:07;;;;;;;14.70;8.47;;;;;;;;;;733720;191;640910;-81
2023/03/23 07:47:33;;;;;;;9.30;6.70;;;;;;;;;;730991;191;648374;-79
2023/03/23 07:49:58;;;;;;;11.50;8.70;;;;;;;;;;725517;195;650436;-79
2023/03/23 07:52:25;;;;;;;10.60;8.10;;;;;;;;;;736054;191;661412;-81
2023/03/23 07:54:50;;;;;;;12.33;7.90;;;;;;;;;;738568;190;674131;-82
2023/03/23 07:57:16;;;;;;;9.40;5.97;;;;;;;;;;730641;190;620568;-82
2023/03/23 07:59:42;;;;;;;7.00;5.60;;;;;;;;;;732625;191;618131;-82
2023/03/23 08:02:08;;;;;;;13.03;7.37;;;;;;;;;;733036;191;616387;-80
2023/03/23 08:04:37;;;;;;;9.53;7.67;;;;;;;;;;727712;192;672738;-82
2023/03/23 08:06:59;;;;;;;13.90;10.33;;;;;;;;;;739133;190;647201;-81
2023/03/23 08:09:25;;;;;;;11.20;7.67;;;;;;;;;;744473;190;680120;-79
2023/03/23 08:11:51;;;;;;;10.33;8.20;;;;;;;;;;733689;190;629146;-79
2023/03/23 08:14:17;;;;;;;13.50;9.10;;;;;;;;;;726075;191;695522;-80
2023/03/23 08:16:43;;;;;;;14.87;7.90;;;;;;;;;;739757;190;654144;-81
2023/03/23 08:19:09;;;;;;;12.80;9.33;;;;;;;;;;727970;191;634544;-78
2023/03/23 08:21:35;;;;;;;11.03;7.80;;;;;;;;;;729728;191;629748;-79
2023/03/23 08:24:01;;;;;;;9.87;6.43;;;;;;;;;;732977;191;634303;-81
2023/03/23 08:26:27;;;;;;;7.50;6.00;;;;;;;;;;727794;191;629339;-81
2023/03/23 08:28:53;;;;;;;6.97;5.27;;;;;;;;;;729817;191;661010;-80
2023/03/23 08:31:18;;;;;;;9.70;5.90;;;;;;;;;;736701;191;668276;-79
2023/03/23 08:33:44;;;;;;;12.53;6.10;;;;;;;;;;738602;190;629394;-78
2023/03/23 08:36:10;;;;;;;6.43;4.63;;;;;;;;;;733866;190;664520;-81
2023/03/23 08:38:36;;;;;;;7.20;4.73;;;;;;;;;;737703;190;636144;-80
2023/03/23 08:41:02;;;;;;;6.17;4.83;;;;;;;;;;737159;191;644609;-80
2023/03/23 08:43:27;;;;;;;6.10;4.73;;;;;;;;;;725356;195;653664;-79
2023/03/23 08:45:53;;;;;;;9.43;5.20;;;;;;;;;;731077;191;644256;-81
2023/03/23 08:48:19;;;;;;;6.20;4.70;;;;;;;;;;735145;191;632411;-79
2023/03/23 08:50:45;;;;;;;9.40;4.83;;;;;;;;;;730339;191;627769;-79
2023/03/23 08:53:11;;;;;;;6.60;4.63;;;;;;;;;;732427;191;652095;-80
2023/03/23 08:55:38;;;;;;;7.87;4.90;;;;;;;;;;732206;191;663516;-81
2023/03/23 08:58:04;;;;;;;9.20;4.70;;;;;;;;;;740459;191;660760;-82
2023/03/23 09:00:29;;;;;;;7.97;4.90;;;;;;;;;;737142;185;659880;-81
2023/03/23 09:02:56;;;;;;;9.30;5.80;;;;;;;;;;735917;189;632095;-81
2023/03/23 09:05:21;;;;;;;6.90;5.20;;;;;;;;;;742164;188;650855;-78
2023/03/23 09:07:47;;;;;;;8.83;5.67;;;;;;;;;;734288;190;636802;-79
2023/03/23 09:10:13;;;;;;;7.57;4.20;;;;;;;;;;731124;191;652344;-81
2023/03/23 09:12:38;;;;;;;11.37;5.23;;;;;;;;;;730432;191;626671;-80
2023/03/23 09:15:08;;;;;;;7.13;4.70;;;;;;;;;;734839;189;658986;-81
2023/03/23 09:17:31;;;;;;;10.10;5.50;;;;;;;;;;740140;190;638710;-78
2023/03/23 09:19:56;;;;;;;9.10;5.50;;;;;;;;;;733078;190;630578;-79
2023/03/23 09:22:23;;;;;;;7.30;5.10;;;;;;;;;;728667;191;657732;-78
2023/03/23 09:24:48;;;;;;;7.47;4.80;;;;;;;;;;732275;192;630403;-82
2023/03/23 09:27:14;;;;;;;9.13;5.50;;;;;;;;;;729617;190;629956;-82
2023/03/23 09:29:40;;;;;;;7.43;5.10;;;;;;;;;;734575;191;676886;-82
2023/03/23 09:32:05;;;;;;;12.10;5.40;;;;;;;;;;729764;191;631393;-81
2023/03/23 09:34:35;;;;;;;8.03;5.37;;;;;;;;;;727623;193;640267;-80
2023/03/23 09:36:57;;;;;;;8.27;5.57;;;;;;;;;;739445;191;616032;-79
2023/03/23 09:39:23;;;;;;;7.10;4.97;;;;;;;;;;729872;190;634566;-81
2023/03/23 09:42:04;;;;;;;9.37;5.10;;;;;;;;;;728609;191;746687;-79
2023/03/23 09:44:35;;;;;;;7.93;4.83;;;;;;;;;;724947;193;645733;-81
2023/03/23 09:47:10;;;;;;;14.00;5.67;;;;;;;;;;733696;190;662722;-81
2023/03/23 09:49:42;;;;;;;7.57;4.60;;;;;;;;;;743223;191;662477;-81
2023/03/23 09:52:09;;;;;;;9.17;6.00;;;;;;;;;;740790;191;648436;-82
2023/03/23 09:54:36;;;;;;;8.23;5.70;;;;;;;;;;733676;191;726798;-79
2023/03/23 09:57:01;;;;;;;7.50;5.10;;;;;;;;;;731944;191;893385;-80
2023/03/23 09:59:36;;;;;;;7.17;5.00;;;;;;;;;;742073;191;621188;-80
2023/03/23 10:02:04;;;;;;;8.33;4.63;;;;;;;;;;730957;193;754647;-80
2023/03/23 10:04:29;;;;;;;12.27;5.30;;;;;;;;;;726072;194;625027;-82
2023/03/23 10:06:56;;;;;;;11.00;4.00;;;;;;;;;;730841;190;659987;-81
2023/03/23 10:09:23;;;;;;;6.57;4.37;;;;;;;;;;738111;191;647104;-80
2023/03/23 10:11:49;;;;;;;7.73;4.77;;;;;;;;;;731859;190;694180;-82
2023/03/23 10:14:19;;;;;;;8.50;5.00;;;;;;;;;;724898;194;684977;-79
2023/03/23 10:16:47;;;;;;;14.53;6.20;;;;;;;;;;725787;191;672964;-80
2023/03/23 10:19:12;;;;;;;9.77;5.60;;;;;;;;;;730042;191;648980;-81
2023/03/23 10:21:38;;;;;;;7.97;4.50;;;;;;;;;;725348;193;732340;-80
2023/03/23 10:24:04;;;;;;;8.90;5.20;;;;;;;;;;730054;191;635331;-80
2023/03/23 10:26:45;;;;;;;7.60;4.47;;;;;;;;;;733663;191;737056;-82
2023/03/23 10:29:19;;;;;;;8.53;4.60;;;;;;;;;;731760;190;625405;-80
2023/03/23 10:31:47;;;;;;;8.63;4.80;;;;;;;;;;728567;190;941310;-78
2023/03/23 10:34:16;;;;;;;8.50;4.67;;;;;;;;;;727856;194;659709;-82
2023/03/23 10:36:45;;;;;;;8.53;4.90;;;;;;;;;;727378;191;667564;-82
2023/03/23 10:39:11;;;;;;;8.00;4.47;;;;;;;;;;730039;195;631487;-79
2023/03/23 10:41:37;;;;;;;9.07;5.87;;;;;;;;;;726284;195;637228;-80
2023/03/23 10:44:02;;;;;;;7.73;4.87;;;;;;;;;;726308;195;637789;-79
2023/03/23 10:46:29;;;;;;;7.57;4.47;;;;;;;;;;726423;191;643837;-80
2023/03/23 10:48:56;;;;;;;9.40;5.07;;;;;;;;;;735534;188;627368;-78
2023/03/23 10:51:21;;;;;;;11.53;6.07;;;;;;;;;;726309;191;671768;-81
2023/03/23 10:53:49;;;;;;;8.37;5.50;;;;;;;;;;725583;195;639507;-81
2023/03/23 10:56:27;;;;;;;9.30;6.00;;;;;;;;;;729640;195;626542;-80
2023/03/23 10:58:53;;;;;;;8.70;5.20;;;;;;;;;;727892;195;626471;-81
2023/03/23 11:01:18;;;;;;;8.47;5.27;;;;;;;;;;728235;191;627963;-80
2023/03/23 11:03:45;;;;;;;9.60;5.37;;;;;;;;;;739849;190;636500;-77
2023/03/23 11:06:10;;;;;;;6.80;4.60;;;;;;;;;;730346;191;634333;-80
2023/03/23 11:08:36;;;;;;;8.13;5.10;;;;;;;;;;726981;194;629204;-81
2023/03/23 11:11:09;;;;;;;10.23;6.00;;;;;;;;;;727813;191;632909;-81
2023/03/23 11:13:35;;;;;;;8.80;4.53;;;;;;;;;;726996;194;629059;-80
2023/03/23 11:16:01;;;;;;;9.77;6.20;;;;;;;;;;730861;191;635461;-80
2023/03/23 11:18:27;;;;;;;11.77;5.80;;;;;;;;;;738843;191;631538;-81
2023/03/23 11:20:56;;;;;;;6.90;4.47;;;;;;;;;;736617;191;628215;-78
2023/03/23 11:23:22;;;;;;;9.67;5.63;;;;;;;;;;729291;191;627801;-81
2023/03/23 11:25:51;;;;;;;9.80;4.93;;;;;;;;;;725286;193;644505;-81
2023/03/23 11:28:16;;;;;;;6.83;4.60;;;;;;;;;;725198;193;630566;-79
2023/03/23 11:30:42;;;;;;;10.97;6.23;;;;;;;;;;725398;195;643100;-79
2023/03/23 11:33:08;;;;;;;12.83;5.90;;;;;;;;;;732145;191;635190;-81
2023/03/23 11:35:34;;;;;;;11.23;5.73;;;;;;;;;;725502;195;624873;-81
2023/03/23 11:38:00;;;;;;;9.50;5.53;;;;;;;;;;736625;188;627834;-78
2023/03/23 11:40:27;;;;;;;9.73;5.50;;;;;;;;;;745036;190;670529;-77
2023/03/23 11:42:56;;;;;;;10.17;5.67;;;;;;;;;;740745;190;655158;-81
2023/03/23 11:45:22;;;;;;;9.73;5.50;;;;;;;;;;740494;190;622176;-81
2023/03/23 11:47:52;;;;;;;9.07;5.07;;;;;;;;;;739016;190;633510;-79
2023/03/23 11:50:18;;;;;;;8.57;4.67;;;;;;;;;;741027;187;632274;-81
2023/03/23 11:52:45;;;;;;;10.20;5.23;;;;;;;;;;734740;191;647148;-81
2023/03/23 11:55:28;;;;;;;10.40;5.00;;;;;;;;;;738435;188;645642;-81
2023/03/23 11:57:54;;;;;;;8.53;5.33;;;;;;;;;;740497;190;675426;-79
2023/03/23 12:00:20;;;;;;;10.50;4.90;;;;;;;;;;744270;190;624387;-80
2023/03/23 12:03:02;;;;;;;8.63;5.30;;;;;;;;;;732547;190;635626;-81
2023/03/23 12:05:28;;;;;;;12.50;6.50;;;;;;;;;;738328;190;636928;-80
2023/03/23 12:07:55;;;;;;;11.23;6.67;;;;;;;;;;734284;191;621040;-81
2023/03/23 12:10:24;;;;;;;8.63;5.03;;;;;;;;;;735905;191;626251;-80
2023/03/23 12:12:50;;;;;;;10.80;6.23;;;;;;;;;;734353;191;634313;-80
2023/03/23 12:15:17;;;;;;;10.27;6.37;;;;;;;;;;727836;191;622424;-81
2023/03/23 12:18:00;;;;;;;9.43;6.00;;;;;;;;;;731201;191;627103;-80
2023/03/23 12:20:31;;;;;;;12.57;5.60;;;;;;;;;;728810;190;624969;-81
2023/03/23 12:22:58;;;;;;;14.20;7.13;;;;;;;;;;741883;189;638063;-81
2023/03/23 12:25:43;;;;;;;9.07;5.87;;;;;;;;;;735211;187;613814;-80
2023/03/23 12:28:15;;;;;;;9.40;6.17;;;;;;;;;;737264;188;635971;-81
2023/03/23 12:30:41;;;;;;;14.10;6.50;;;;;;;;;;730709;188;753556;-78
2023/03/23 12:33:08;;;;;;;14.43;6.67;;;;;;;;;;731933;184;633374;-81
2023/03/23 12:35:39;;;;;;;9.07;5.57;;;;;;;;;;733317;188;673726;-81
2023/03/23 12:38:08;;;;;;;10.87;6.07;;;;;;;;;;737907;190;643471;-78
2023/03/23 12:40:48;;;;;;;9.63;5.60;;;;;;;;;;732196;191;724204;-79
2023/03/23 12:43:18;;;;;;;8.23;5.50;;;;;;;;;;730669;190;724410;-78
2023/03/23 12:46:01;;;;;;;8.10;5.07;;;;;;;;;;726364;193;625244;-81
2023/03/23 12:48:28;;;;;;;9.63;6.23;;;;;;;;;;735415;191;625192;-80
2023/03/23 12:51:11;;;;;;;10.90;5.33;;;;;;;;;;731329;191;667522;-80
2023/03/23 12:53:37;;;;;;;9.10;6.23;;;;;;;;;;733715;190;715103;-80
2023/03/23 12:56:18;;;;;;;14.80;5.60;;;;;;;;;;730612;191;767890;-81
2023/03/23 12:58:45;;;;;;;8.83;5.83;;;;;;;;;;733465;187;623817;-80
2023/03/23 13:01:11;;;;;;;15.13;5.90;;;;;;;;;;738274;190;693347;-82
2023/03/23 13:03:53;;;;;;;9.70;6.57;;;;;;;;;;738020;191;787295;-80
2023/03/23 13:06:19;;;;;;;10.60;5.43;;;;;;;;;;736794;190;636793;-81
2023/03/23 13:08:47;;;;;;;9.20;5.57;;;;;;;;;;737433;191;629836;-82
2023/03/23 13:11:12;;;;;;;9.70;5.10;;;;;;;;;;729269;191;626458;-80
2023/03/23 13:13:40;;;;;;;10.03;6.60;;;;;;;;;;736180;190;630021;-81
2023/03/23 13:16:08;;;;;;;10.00;5.70;;;;;;;;;;732000;190;650432;-81
2023/03/23 13:18:38;;;;;;;11.10;6.17;;;;;;;;;;739252;190;613369;-80
2023/03/23 13:21:05;;;;;;;9.90;6.17;;;;;;;;;;730317;191;636659;-80
2023/03/23 13:23:32;;;;;;;15.60;6.93;;;;;;;;;;727840;191;627120;-81
2023/03/23 13:26:00;;;;;;;9.83;6.03;;;;;;;;;;739206;191;624284;-81
2023/03/23 13:28:28;;;;;;;9.47;6.00;;;;;;;;;;737852;191;630069;-80
2023/03/23 13:30:53;;;;;;;10.50;5.60;;;;;;;;;;727925;191;625473;-80
2023/03/23 13:33:19;;;;;;;14.90;6.87;;;;;;;;;;733725;191;629915;-80
2023/03/23 13:35:44;;;;;;;8.20;4.50;;;;;;;;;;730269;188;617012;-79
2023/03/23 13:38:14;;;;;;;8.03;5.03;;;;;;;;;;734941;191;678279;-81
2023/03/23 13:40:39;;;;;;;6.10;4.50;;;;;;;;;;735422;190;630863;-80
2023/03/23 13:43:06;;;;;;;10.03;5.47;;;;;;;;;;743596;190;636217;-81
2023/03/23 13:45:46;;;;;;;8.03;5.53;;;;;;;;;;730185;191;652102;-79
2023/03/23 13:48:21;;;;;;;8.50;4.83;;;;;;;;;;734465;190;642519;-81
2023/03/23 13:50:49;;;;;;;8.00;5.20;;;;;;;;;;732708;191;628406;-80
2023/03/23 13:53:15;;;;;;;6.90;4.20;;;;;;;;;;730373;191;654366;-81
2023/03/23 13:55:41;;;;;;;8.80;4.73;;;;;;;;;;729839;191;624402;-79
2023/03/23 13:58:09;;;;;;;8.93;5.03;;;;;;;;;;730125;191;625410;-82
2023/03/23 14:00:36;;;;;;;8.43;5.20;;;;;;;;;;732070;191;630018;-79
2023/03/23 14:03:02;;;;;;;6.93;4.27;;;;;;;;;;729833;190;640690;-81
2023/03/23 14:05:28;;;;;;;7.50;4.10;;;;;;;;;;731427;190;633322;-81
2023/03/23 14:07:55;;;;;;;8.27;5.13;;;;;;;;;;731241;190;712932;-80
2023/03/23 14:10:20;;;;;;;9.70;4.20;;;;;;;;;;733657;188;633170;-81
2023/03/23 14:12:46;;;;;;;6.50;3.67;;;;;;;;;;735288;190;620041;-80
2023/03/23 14:15:12;;;;;;;5.27;3.23;;;;;;;;;;731185;185;780691;-81